Time;durP1;ratioP1;P1;durP2;ratioP2;P2;SDS_P1;SDS_P2;PMS_P1;PMS_P2;Temp;Humidity;BMP_temperature;BMP_pressure;BME280_temperature;BME280_humidity;BME280_pressure;Samples;Min_cycle;Max_cycle;Signal;HPM_P1;HPM_P2
2023/04/18 00:00:56;;;;;;;18.88;4.03;;;;;;;;;;5029394;28;20037;-38
2023/04/18 00:03:23;;;;;;;17.67;4.25;;;;;;;;;;5033236;28;20423;-39
2023/04/18 00:05:50;;;;;;;27.55;3.78;;;;;;;;;;5021401;28;20038;-37
2023/04/18 00:08:17;;;;;;;24.17;4.25;;;;;;;;;;5032888;28;20025;-39
2023/04/18 00:10:45;;;;;;;19.83;3.88;;;;;;;;;;5033524;28;20446;-38
2023/04/18 00:13:12;;;;;;;22.85;4.07;;;;;;;;;;5033551;28;20025;-37
2023/04/18 00:15:40;;;;;;;25.13;4.20;;;;;;;;;;5033286;28;20104;-35
2023/04/18 00:18:07;;;;;;;22.73;4.28;;;;;;;;;;5024224;28;20113;-35
2023/04/18 00:20:37;;;;;;;24.80;5.00;;;;;;;;;;5013949;28;20034;-37
2023/04/18 00:23:05;;;;;;;27.48;4.68;;;;;;;;;;5013628;28;20133;-39
2023/04/18 00:25:32;;;;;;;24.08;4.47;;;;;;;;;;5012170;28;20447;-38
2023/04/18 00:27:59;;;;;;;17.38;4.57;;;;;;;;;;5013562;28;20403;-35
2023/04/18 00:30:26;;;;;;;18.67;4.43;;;;;;;;;;5025417;28;20106;-35
2023/04/18 00:32:53;;;;;;;21.50;4.28;;;;;;;;;;5033155;28;20029;-35
2023/04/18 00:35:20;;;;;;;21.63;4.05;;;;;;;;;;5020394;28;20030;-36
2023/04/18 00:37:47;;;;;;;21.67;4.68;;;;;;;;;;5013103;28;20168;-35
2023/04/18 00:40:14;;;;;;;14.20;3.25;;;;;;;;;;5013381;28;20080;-36
2023/04/18 00:42:41;;;;;;;23.45;4.10;;;;;;;;;;5013005;28;20080;-35
2023/04/18 00:45:08;;;;;;;18.85;3.70;;;;;;;;;;5011717;28;20025;-35
2023/04/18 00:47:35;;;;;;;16.88;3.20;;;;;;;;;;5012978;28;20025;-36
2023/04/18 00:50:02;;;;;;;16.48;3.22;;;;;;;;;;5012785;28;20026;-36
2023/04/18 00:52:32;;;;;;;16.73;3.08;;;;;;;;;;5012905;28;20026;-36
2023/04/18 00:54:59;;;;;;;20.35;4.15;;;;;;;;;;5012944;28;20396;-35
2023/04/18 00:57:26;;;;;;;19.63;3.45;;;;;;;;;;5021090;28;20064;-36
2023/04/18 00:59:53;;;;;;;20.10;3.30;;;;;;;;;;5032172;28;20037;-35
2023/04/18 01:02:21;;;;;;;18.25;2.88;;;;;;;;;;5032838;28;20056;-37
2023/04/18 01:04:48;;;;;;;20.77;3.13;;;;;;;;;;5032440;28;20036;-36
2023/04/18 01:07:15;;;;;;;14.48;3.10;;;;;;;;;;5032280;28;20125;-37
2023/04/18 01:09:42;;;;;;;19.75;3.80;;;;;;;;;;5032158;28;20059;-37
2023/04/18 01:12:09;;;;;;;22.40;3.50;;;;;;;;;;5032141;28;20029;-35
2023/04/18 01:14:36;;;;;;;19.90;3.33;;;;;;;;;;5019113;28;20034;-36
2023/04/18 01:17:03;;;;;;;13.63;3.28;;;;;;;;;;5029059;28;20041;-37
2023/04/18 01:19:30;;;;;;;16.60;2.78;;;;;;;;;;5032220;28;20025;-37
2023/04/18 01:21:57;;;;;;;14.65;3.15;;;;;;;;;;5030668;28;20506;-36
2023/04/18 01:24:25;;;;;;;18.98;3.22;;;;;;;;;;5030273;28;20022;-36
2023/04/18 01:26:52;;;;;;;16.33;2.97;;;;;;;;;;5031173;28;20046;-36
2023/04/18 01:29:19;;;;;;;18.05;3.08;;;;;;;;;;5023575;28;20025;-37
2023/04/18 01:31:46;;;;;;;21.80;3.45;;;;;;;;;;5019677;28;20483;-36
2023/04/18 01:34:14;;;;;;;16.38;3.40;;;;;;;;;;5031819;28;20025;-37
2023/04/18 01:36:41;;;;;;;16.08;2.72;;;;;;;;;;5030943;28;20037;-36
2023/04/18 01:39:08;;;;;;;20.38;3.20;;;;;;;;;;5031293;28;20467;-36
2023/04/18 01:41:35;;;;;;;14.90;2.67;;;;;;;;;;5030460;28;20030;-37
2023/04/18 01:44:02;;;;;;;17.23;3.10;;;;;;;;;;5027003;28;20045;-36
2023/04/18 01:46:29;;;;;;;14.80;2.40;;;;;;;;;;5027014;28;20029;-37
2023/04/18 01:48:56;;;;;;;11.20;2.55;;;;;;;;;;5029214;28;20030;-36
2023/04/18 01:51:23;;;;;;;11.50;2.53;;;;;;;;;;5030894;28;20052;-36
2023/04/18 01:53:50;;;;;;;18.35;2.80;;;;;;;;;;5030772;28;20434;-37
2023/04/18 01:56:17;;;;;;;15.13;2.47;;;;;;;;;;5030930;28;20018;-36
2023/04/18 01:58:44;;;;;;;13.25;2.75;;;;;;;;;;5031016;28;20104;-37
2023/04/18 02:01:11;;;;;;;8.82;2.25;;;;;;;;;;5031393;28;20387;-37
2023/04/18 02:03:38;;;;;;;11.27;2.28;;;;;;;;;;5031099;28;20107;-36
2023/04/18 02:06:06;;;;;;;11.25;2.35;;;;;;;;;;5030289;28;20118;-37
2023/04/18 02:08:34;;;;;;;11.10;2.45;;;;;;;;;;5031013;28;20025;-36
2023/04/18 02:11:13;;;;;;;9.40;2.47;;;;;;;;;;5031195;28;20029;-37
2023/04/18 02:13:40;;;;;;;13.10;2.20;;;;;;;;;;5029747;28;20032;-36
2023/04/18 02:16:11;;;;;;;13.70;2.30;;;;;;;;;;5031342;28;20121;-36
2023/04/18 02:18:40;;;;;;;6.88;2.17;;;;;;;;;;5031522;28;20026;-36
2023/04/18 02:21:08;;;;;;;9.23;2.22;;;;;;;;;;5031626;28;20167;-36
2023/04/18 02:23:35;;;;;;;8.45;2.00;;;;;;;;;;5031575;28;20108;-36
2023/04/18 02:26:02;;;;;;;7.32;1.92;;;;;;;;;;5031541;28;20018;-36
2023/04/18 02:28:29;;;;;;;13.48;2.60;;;;;;;;;;5031585;28;20420;-36
2023/04/18 02:30:56;;;;;;;6.78;1.95;;;;;;;;;;5031532;28;20029;-36
2023/04/18 02:33:24;;;;;;;15.07;2.70;;;;;;;;;;5031440;28;20038;-36
2023/04/18 02:35:50;;;;;;;7.90;2.25;;;;;;;;;;5031355;28;20017;-36
2023/04/18 02:38:17;;;;;;;6.80;1.88;;;;;;;;;;5031324;28;20384;-35
2023/04/18 02:40:44;;;;;;;9.65;2.25;;;;;;;;;;5031278;28;20087;-35
2023/04/18 02:43:11;;;;;;;7.43;2.22;;;;;;;;;;5031471;28;20088;-36
2023/04/18 02:45:38;;;;;;;7.43;1.90;;;;;;;;;;5031312;28;20029;-36
2023/04/18 02:48:05;;;;;;;11.80;2.08;;;;;;;;;;5031351;28;20030;-36
2023/04/18 02:50:34;;;;;;;6.97;2.00;;;;;;;;;;5031310;28;20030;-36
2023/04/18 02:53:01;;;;;;;6.65;1.70;;;;;;;;;;5031302;28;20033;-36
2023/04/18 02:55:28;;;;;;;9.57;2.22;;;;;;;;;;5031205;28;20075;-36
2023/04/18 02:57:56;;;;;;;9.00;2.10;;;;;;;;;;5031272;28;20049;-36
2023/04/18 03:00:23;;;;;;;7.80;2.25;;;;;;;;;;5031250;28;20026;-36
2023/04/18 03:02:51;;;;;;;7.88;2.00;;;;;;;;;;5031318;28;20049;-36
2023/04/18 03:05:19;;;;;;;6.93;1.92;;;;;;;;;;5031004;28;20029;-36
2023/04/18 03:07:46;;;;;;;7.93;1.90;;;;;;;;;;5031036;28;20476;-36
2023/04/18 03:10:14;;;;;;;5.28;1.70;;;;;;;;;;5031201;28;20388;-36
2023/04/18 03:12:41;;;;;;;8.73;2.00;;;;;;;;;;5031126;28;20021;-36
2023/04/18 03:15:08;;;;;;;6.15;1.58;;;;;;;;;;5031044;28;20151;-36
2023/04/18 03:17:36;;;;;;;5.13;1.67;;;;;;;;;;5034632;28;20033;-36
2023/04/18 03:20:03;;;;;;;6.10;2.15;;;;;;;;;;5034931;28;20033;-36
2023/04/18 03:22:30;;;;;;;8.63;1.98;;;;;;;;;;5034893;28;20018;-36
2023/04/18 03:24:58;;;;;;;10.05;1.95;;;;;;;;;;5034711;28;20026;-36
2023/04/18 03:27:25;;;;;;;5.50;1.58;;;;;;;;;;5034645;28;20041;-36
2023/04/18 03:29:52;;;;;;;8.30;1.77;;;;;;;;;;5034613;28;20041;-36
2023/04/18 03:32:19;;;;;;;5.55;1.50;;;;;;;;;;5034743;28;20101;-36
2023/04/18 03:34:46;;;;;;;6.15;1.73;;;;;;;;;;5034553;28;20021;-36
2023/04/18 03:37:13;;;;;;;7.20;1.75;;;;;;;;;;5034802;28;20261;-36
2023/04/18 03:39:40;;;;;;;5.43;1.67;;;;;;;;;;5034399;28;20049;-36
2023/04/18 03:42:07;;;;;;;5.68;1.38;;;;;;;;;;5034402;28;20036;-36
2023/04/18 03:44:34;;;;;;;8.80;2.28;;;;;;;;;;5034601;28;20053;-36
2023/04/18 03:47:01;;;;;;;5.53;1.55;;;;;;;;;;5034344;28;20031;-36
2023/04/18 03:49:28;;;;;;;6.05;1.70;;;;;;;;;;5034414;28;20087;-35
2023/04/18 03:51:55;;;;;;;6.28;1.60;;;;;;;;;;5034291;28;20025;-36
2023/04/18 03:54:22;;;;;;;7.80;1.33;;;;;;;;;;5034321;28;20033;-36
2023/04/18 03:56:49;;;;;;;6.60;1.80;;;;;;;;;;5034108;28;20025;-35
2023/04/18 03:59:16;;;;;;;6.00;1.65;;;;;;;;;;5034231;28;20639;-36
2023/04/18 04:01:43;;;;;;;5.65;1.60;;;;;;;;;;5034230;28;20030;-36
2023/04/18 04:04:12;;;;;;;5.05;1.85;;;;;;;;;;5034117;28;20045;-36
2023/04/18 04:06:39;;;;;;;4.05;1.45;;;;;;;;;;5033876;28;20575;-36
2023/04/18 04:09:06;;;;;;;5.10;1.73;;;;;;;;;;5034096;28;20037;-36
2023/04/18 04:11:33;;;;;;;5.78;1.80;;;;;;;;;;5033920;28;20032;-36
2023/04/18 04:14:01;;;;;;;5.72;1.90;;;;;;;;;;5033897;28;20471;-36
2023/04/18 04:16:28;;;;;;;4.28;1.50;;;;;;;;;;5033810;28;20041;-36
2023/04/18 04:18:55;;;;;;;4.65;1.80;;;;;;;;;;5034172;28;20357;-36
2023/04/18 04:21:22;;;;;;;6.15;1.60;;;;;;;;;;5033763;28;20164;-36
2023/04/18 04:23:49;;;;;;;6.05;1.70;;;;;;;;;;5033783;28;20064;-35
2023/04/18 04:26:16;;;;;;;7.03;1.52;;;;;;;;;;5033597;28;20029;-36
2023/04/18 04:29:09;;;;;;;4.28;1.73;;;;;;;;;;5032678;28;20037;-36
2023/04/18 04:31:36;;;;;;;4.07;1.70;;;;;;;;;;5033579;28;20466;-36
2023/04/18 04:34:03;;;;;;;4.70;1.60;;;;;;;;;;5033663;28;20531;-35
2023/04/18 04:36:32;;;;;;;6.28;1.73;;;;;;;;;;5033509;28;20026;-36
2023/04/18 04:38:59;;;;;;;5.18;1.50;;;;;;;;;;5033156;28;20439;-36
2023/04/18 04:41:26;;;;;;;5.03;1.60;;;;;;;;;;5033311;28;20369;-36
2023/04/18 04:43:53;;;;;;;6.20;1.80;;;;;;;;;;5033379;28;20033;-36
2023/04/18 04:46:21;;;;;;;3.72;1.67;;;;;;;;;;5033285;28;20071;-36
2023/04/18 04:48:48;;;;;;;5.55;1.60;;;;;;;;;;5033166;28;20040;-36
2023/04/18 04:51:15;;;;;;;5.70;1.88;;;;;;;;;;5033083;28;20022;-36
2023/04/18 04:53:42;;;;;;;3.33;1.63;;;;;;;;;;5033178;28;20029;-36
2023/04/18 04:56:10;;;;;;;4.85;1.75;;;;;;;;;;5033150;28;20034;-36
2023/04/18 05:01:56;;;;;;;5.78;1.80;;;;;;;;;;4957754;28;20106;-36
2023/04/18 05:07:42;;;;;;;5.00;1.73;;;;;;;;;;4898407;29;20119;-37
2023/04/18 05:10:09;;;;;;;5.10;1.73;;;;;;;;;;4957500;28;20031;-37
2023/04/18 05:12:36;;;;;;;5.22;1.60;;;;;;;;;;5006179;28;20034;-37
2023/04/18 05:15:03;;;;;;;2.97;1.23;;;;;;;;;;5032764;28;20560;-37
2023/04/18 05:17:30;;;;;;;5.22;1.58;;;;;;;;;;5032628;28;20399;-37
2023/04/18 05:19:57;;;;;;;7.57;1.50;;;;;;;;;;5032666;28;20093;-38
2023/04/18 05:22:24;;;;;;;4.20;1.58;;;;;;;;;;5032660;28;20029;-37
2023/04/18 05:24:51;;;;;;;3.58;1.27;;;;;;;;;;5032678;28;20032;-37
2023/04/18 05:27:18;;;;;;;4.68;1.40;;;;;;;;;;5032422;28;20025;-37
2023/04/18 05:29:46;;;;;;;3.10;1.65;;;;;;;;;;5032417;28;20029;-37
2023/04/18 05:32:13;;;;;;;5.38;1.50;;;;;;;;;;5032370;28;20029;-37
2023/04/18 05:34:41;;;;;;;3.63;1.33;;;;;;;;;;5032315;28;20435;-37
2023/04/18 05:37:08;;;;;;;3.47;1.30;;;;;;;;;;5032308;28;20424;-37
2023/04/18 05:39:34;;;;;;;3.60;1.30;;;;;;;;;;5031131;28;20057;-37
2023/04/18 05:42:02;;;;;;;3.25;1.40;;;;;;;;;;5032311;28;20036;-37
2023/04/18 05:44:29;;;;;;;3.75;1.48;;;;;;;;;;5032159;28;20026;-37
2023/04/18 05:46:56;;;;;;;4.38;1.25;;;;;;;;;;5032131;28;20025;-37
2023/04/18 05:49:23;;;;;;;3.08;1.40;;;;;;;;;;5031999;28;20032;-37
2023/04/18 05:51:51;;;;;;;3.88;1.02;;;;;;;;;;5032001;28;20048;-37
2023/04/18 05:54:21;;;;;;;3.17;1.23;;;;;;;;;;5032038;28;20026;-37
2023/04/18 05:56:48;;;;;;;2.85;1.10;;;;;;;;;;5032066;28;20112;-37
2023/04/18 05:59:15;;;;;;;2.67;1.00;;;;;;;;;;5031888;28;20514;-37
2023/04/18 06:01:43;;;;;;;4.05;1.10;;;;;;;;;;5021220;28;20057;-36
2023/04/18 06:04:10;;;;;;;3.58;1.27;;;;;;;;;;5029860;28;20041;-37
2023/04/18 06:06:37;;;;;;;2.30;1.00;;;;;;;;;;5031779;28;20075;-36
2023/04/18 06:09:04;;;;;;;3.28;1.13;;;;;;;;;;5031722;28;20029;-36
2023/04/18 06:11:34;;;;;;;4.20;1.27;;;;;;;;;;5031639;28;20522;-36
2023/04/18 06:14:01;;;;;;;3.80;1.25;;;;;;;;;;5031606;28;20087;-36
2023/04/18 06:16:28;;;;;;;2.38;1.17;;;;;;;;;;5031719;28;20120;-36
2023/04/18 06:18:56;;;;;;;3.00;1.00;;;;;;;;;;5031639;28;20033;-37
2023/04/18 06:21:24;;;;;;;3.05;0.93;;;;;;;;;;5031562;28;20095;-36
2023/04/18 06:23:51;;;;;;;2.20;0.90;;;;;;;;;;5031890;28;20087;-37
2023/04/18 06:26:18;;;;;;;3.10;1.20;;;;;;;;;;5031528;28;20104;-36
2023/04/18 06:28:45;;;;;;;2.72;1.10;;;;;;;;;;5031530;28;20030;-37
2023/04/18 06:31:12;;;;;;;3.25;1.23;;;;;;;;;;5031596;28;20056;-36
2023/04/18 06:33:39;;;;;;;2.33;1.02;;;;;;;;;;5031555;28;20025;-36
2023/04/18 06:36:06;;;;;;;2.80;1.10;;;;;;;;;;5031585;28;20037;-37
2023/04/18 06:38:33;;;;;;;2.08;0.90;;;;;;;;;;5031137;28;20049;-36
2023/04/18 06:41:00;;;;;;;3.25;1.27;;;;;;;;;;5031498;28;20109;-36
2023/04/18 06:43:27;;;;;;;2.47;1.00;;;;;;;;;;5031503;28;20033;-36
2023/04/18 06:45:55;;;;;;;3.03;1.00;;;;;;;;;;5031447;28;20075;-36
2023/04/18 06:48:22;;;;;;;2.47;1.23;;;;;;;;;;5031266;28;20052;-36
2023/04/18 06:50:49;;;;;;;2.25;1.10;;;;;;;;;;5032319;28;20064;-36
2023/04/18 06:53:16;;;;;;;3.60;1.23;;;;;;;;;;5035379;28;20026;-37
2023/04/18 06:55:43;;;;;;;2.75;1.17;;;;;;;;;;5035358;28;20025;-37
2023/04/18 06:58:12;;;;;;;2.47;1.02;;;;;;;;;;5035271;28;20037;-37
2023/04/18 07:00:39;;;;;;;2.05;0.95;;;;;;;;;;5035130;28;20657;-37
2023/04/18 07:03:08;;;;;;;2.97;1.02;;;;;;;;;;5035181;28;20063;-36
2023/04/18 07:05:36;;;;;;;1.85;1.10;;;;;;;;;;5035095;28;20029;-36
2023/04/18 07:08:03;;;;;;;2.65;0.90;;;;;;;;;;5034947;28;20037;-36
2023/04/18 07:10:30;;;;;;;2.08;1.00;;;;;;;;;;5035107;28;20387;-37
2023/04/18 07:12:57;;;;;;;2.35;0.80;;;;;;;;;;5035015;28;20438;-37
2023/04/18 07:15:24;;;;;;;2.83;1.10;;;;;;;;;;5035016;28;20732;-37
2023/04/18 07:17:51;;;;;;;2.88;1.02;;;;;;;;;;5034748;28;20503;-37
2023/04/18 07:20:18;;;;;;;2.88;1.00;;;;;;;;;;5034932;28;20029;-37
2023/04/18 07:22:46;;;;;;;2.92;1.10;;;;;;;;;;5034869;28;20033;-37
2023/04/18 07:25:13;;;;;;;2.47;0.80;;;;;;;;;;5034749;28;20030;-36
2023/04/18 07:27:40;;;;;;;2.13;1.00;;;;;;;;;;5034591;28;20034;-37
2023/04/18 07:30:08;;;;;;;1.17;0.65;;;;;;;;;;5034690;28;20118;-37
2023/04/18 07:32:34;;;;;;;2.08;1.05;;;;;;;;;;5034555;28;20756;-37
2023/04/18 07:35:02;;;;;;;2.03;0.90;;;;;;;;;;5033343;28;20388;-37
2023/04/18 07:37:29;;;;;;;2.63;0.90;;;;;;;;;;5034195;28;20040;-37
2023/04/18 07:39:56;;;;;;;1.65;0.77;;;;;;;;;;5034604;28;20026;-37
2023/04/18 07:42:23;;;;;;;1.42;0.65;;;;;;;;;;5034582;28;20021;-36
2023/04/18 07:44:50;;;;;;;1.80;0.90;;;;;;;;;;5034475;28;20030;-36
2023/04/18 07:47:17;;;;;;;2.17;0.88;;;;;;;;;;5034152;28;20431;-37
2023/04/18 07:49:45;;;;;;;3.17;1.00;;;;;;;;;;5034248;28;20041;-37
2023/04/18 07:52:12;;;;;;;2.35;0.60;;;;;;;;;;5034437;28;20430;-37
2023/04/18 07:54:39;;;;;;;5.15;0.80;;;;;;;;;;5034303;28;20049;-36
2023/04/18 07:57:06;;;;;;;2.17;0.80;;;;;;;;;;5034246;28;20376;-37
2023/04/18 07:59:33;;;;;;;2.38;0.70;;;;;;;;;;5033957;28;20067;-37
2023/04/18 08:02:00;;;;;;;1.55;0.85;;;;;;;;;;5033576;28;20052;-37
2023/04/18 08:04:27;;;;;;;4.00;0.73;;;;;;;;;;5033818;28;20068;-37
2023/04/18 08:06:54;;;;;;;3.60;0.80;;;;;;;;;;5034052;28;20071;-36
2023/04/18 08:09:21;;;;;;;2.67;1.00;;;;;;;;;;5033875;28;20033;-37
2023/04/18 08:11:48;;;;;;;1.70;0.70;;;;;;;;;;5033949;28;20065;-37
2023/04/18 08:14:15;;;;;;;1.75;0.70;;;;;;;;;;5033858;28;20025;-37
2023/04/18 08:16:42;;;;;;;2.17;0.70;;;;;;;;;;5033942;28;20076;-37
2023/04/18 08:19:08;;;;;;;2.15;0.80;;;;;;;;;;5033788;28;20049;-37
2023/04/18 08:21:36;;;;;;;1.73;0.60;;;;;;;;;;5033919;28;20097;-37
2023/04/18 08:24:02;;;;;;;2.28;0.68;;;;;;;;;;5033783;28;20101;-37
2023/04/18 08:26:29;;;;;;;1.65;0.73;;;;;;;;;;5033540;28;20033;-37
2023/04/18 08:28:56;;;;;;;3.60;0.70;;;;;;;;;;5033704;28;20488;-37
2023/04/18 08:31:23;;;;;;;1.55;0.65;;;;;;;;;;5033716;28;20030;-36
2023/04/18 08:33:50;;;;;;;1.90;0.70;;;;;;;;;;5033705;28;20032;-37
2023/04/18 08:36:17;;;;;;;1.60;0.60;;;;;;;;;;5033662;28;20021;-37
2023/04/18 08:39:07;;;;;;;1.58;0.60;;;;;;;;;;5033325;28;20089;-37
2023/04/18 08:42:14;;;;;;;1.23;0.60;;;;;;;;;;5024526;28;20049;-37
2023/04/18 08:45:19;;;;;;;;;;;;;;;;;;;;;
2023/04/18 08:47:46;;;;;;;0.98;0.57;;;;;;;;;;5025090;28;20037;-36
2023/04/18 08:50:13;;;;;;;1.77;0.52;;;;;;;;;;5033381;28;20069;-37
2023/04/18 08:52:43;;;;;;;2.60;0.70;;;;;;;;;;5033166;28;20041;-37
2023/04/18 08:55:10;;;;;;;2.45;0.60;;;;;;;;;;5033114;28;20035;-37
2023/04/18 08:57:37;;;;;;;1.05;0.60;;;;;;;;;;5033109;28;20029;-36
2023/04/18 09:00:08;;;;;;;1.45;0.80;;;;;;;;;;5033166;28;20029;-37
2023/04/18 09:02:43;;;;;;;0.75;0.40;;;;;;;;;;5033065;28;20035;-37
2023/04/18 09:05:15;;;;;;;1.00;0.50;;;;;;;;;;5032896;28;20120;-37
2023/04/18 09:07:42;;;;;;;3.73;0.63;;;;;;;;;;5032746;28;20091;-37
2023/04/18 09:10:09;;;;;;;1.23;0.50;;;;;;;;;;5033001;28;20813;-37
2023/04/18 09:12:48;;;;;;;1.20;0.50;;;;;;;;;;5032962;28;20029;-36
2023/04/18 09:15:19;;;;;;;2.08;0.70;;;;;;;;;;5032541;28;20102;-37
2023/04/18 09:17:51;;;;;;;1.33;0.70;;;;;;;;;;5032567;28;20038;-37
2023/04/18 09:20:33;;;;;;;3.70;0.55;;;;;;;;;;5032202;28;20037;-37
2023/04/18 09:23:01;;;;;;;1.27;0.50;;;;;;;;;;5032566;28;20468;-36
2023/04/18 09:25:28;;;;;;;3.90;0.70;;;;;;;;;;5032534;28;20071;-37
2023/04/18 09:28:00;;;;;;;4.97;1.20;;;;;;;;;;5032423;28;20116;-37
2023/04/18 09:30:35;;;;;;;2.22;0.60;;;;;;;;;;5032476;28;20049;-36
2023/04/18 09:33:02;;;;;;;3.70;0.55;;;;;;;;;;5031768;28;20503;-36
2023/04/18 09:35:30;;;;;;;4.97;0.70;;;;;;;;;;5029321;28;20075;-35
2023/04/18 09:37:57;;;;;;;3.55;1.00;;;;;;;;;;5030173;28;20408;-37
2023/04/18 09:40:24;;;;;;;5.38;0.75;;;;;;;;;;5032328;28;20120;-38
2023/04/18 09:42:53;;;;;;;3.97;0.80;;;;;;;;;;5032225;28;20033;-37
2023/04/18 09:45:20;;;;;;;3.25;0.85;;;;;;;;;;5032210;28;20391;-36
2023/04/18 09:47:47;;;;;;;2.30;0.80;;;;;;;;;;5031961;28;20037;-36
2023/04/18 09:50:16;;;;;;;5.25;0.77;;;;;;;;;;5032179;28;20048;-36
2023/04/18 09:52:44;;;;;;;5.85;0.60;;;;;;;;;;5032431;28;20502;-36
2023/04/18 09:55:13;;;;;;;4.35;0.80;;;;;;;;;;5032070;28;20026;-36
2023/04/18 09:57:42;;;;;;;4.53;0.93;;;;;;;;;;5032028;28;20507;-36
2023/04/18 10:00:22;;;;;;;3.67;0.70;;;;;;;;;;5032136;28;20040;-36
2023/04/18 10:02:57;;;;;;;9.07;0.70;;;;;;;;;;5032199;28;20116;-36
2023/04/18 10:05:28;;;;;;;3.95;0.68;;;;;;;;;;5031933;28;20033;-36
2023/04/18 10:07:55;;;;;;;3.45;0.90;;;;;;;;;;5031760;28;20103;-36
2023/04/18 10:10:22;;;;;;;3.65;0.60;;;;;;;;;;5023251;28;20038;-37
2023/04/18 10:12:50;;;;;;;6.05;1.00;;;;;;;;;;5034160;28;20037;-36
2023/04/18 10:15:18;;;;;;;5.55;0.70;;;;;;;;;;5051661;28;20110;-37
2023/04/18 10:17:46;;;;;;;2.72;0.60;;;;;;;;;;5051594;28;20054;-37
2023/04/18 10:20:19;;;;;;;4.05;0.80;;;;;;;;;;5040901;28;20032;-37
2023/04/18 10:22:46;;;;;;;2.97;0.60;;;;;;;;;;5039458;28;20088;-37
2023/04/18 10:25:13;;;;;;;6.25;1.13;;;;;;;;;;5039849;28;20033;-36
2023/04/18 10:27:49;;;;;;;4.95;0.50;;;;;;;;;;5040869;28;20038;-37
2023/04/18 10:30:16;;;;;;;1.88;0.60;;;;;;;;;;5039015;28;20048;-37
2023/04/18 10:32:43;;;;;;;8.73;0.98;;;;;;;;;;5038370;28;20087;-37
2023/04/18 10:35:10;;;;;;;8.45;0.85;;;;;;;;;;5021437;28;20518;-35
2023/04/18 10:37:57;;;;;;;6.20;0.80;;;;;;;;;;5024352;28;20054;-37
2023/04/18 10:40:33;;;;;;;3.13;0.70;;;;;;;;;;5036720;28;20037;-37
2023/04/18 10:43:00;;;;;;;5.45;0.77;;;;;;;;;;5020098;28;20120;-37
2023/04/18 10:45:30;;;;;;;3.97;0.55;;;;;;;;;;5011750;28;20109;-37
2023/04/18 10:48:15;;;;;;;2.42;0.52;;;;;;;;;;5011394;28;20030;-37
2023/04/18 10:51:11;;;;;;;4.65;1.02;;;;;;;;;;5011653;28;20440;-37
2023/04/18 10:53:38;;;;;;;3.38;0.47;;;;;;;;;;4999243;28;20030;-37
2023/04/18 10:56:05;;;;;;;3.80;0.80;;;;;;;;;;5011605;28;20026;-37
2023/04/18 10:58:33;;;;;;;4.97;0.90;;;;;;;;;;5011556;28;20028;-37
2023/04/18 11:01:01;;;;;;;1.40;0.50;;;;;;;;;;5011610;28;20034;-37
2023/04/18 11:03:34;;;;;;;6.85;0.77;;;;;;;;;;5011452;28;20065;-36
2023/04/18 11:06:02;;;;;;;3.17;0.77;;;;;;;;;;5010722;28;20536;-37
2023/04/18 11:08:29;;;;;;;4.25;0.60;;;;;;;;;;5020414;28;20065;-36
2023/04/18 11:11:01;;;;;;;4.43;0.70;;;;;;;;;;5011314;28;20374;-36
2023/04/18 11:13:28;;;;;;;4.75;0.80;;;;;;;;;;5026498;28;20052;-36
2023/04/18 11:15:55;;;;;;;1.50;0.50;;;;;;;;;;5030944;28;20037;-37
2023/04/18 11:18:22;;;;;;;15.02;1.30;;;;;;;;;;5030661;28;20095;-38
2023/04/18 11:20:50;;;;;;;19.10;1.33;;;;;;;;;;5030853;28;20079;-40
2023/04/18 11:23:20;;;;;;;38.42;1.75;;;;;;;;;;5030850;28;20033;-40
2023/04/18 11:25:50;;;;;;;66.88;3.58;;;;;;;;;;5030810;28;20510;-37
2023/04/18 11:28:21;;;;;;;173.57;8.77;;;;;;;;;;5030506;28;20116;-39
2023/04/18 11:30:48;;;;;;;124.13;7.22;;;;;;;;;;5030751;28;20044;-38
2023/04/18 11:33:15;;;;;;;77.55;6.03;;;;;;;;;;5030857;28;20022;-39
2023/04/18 11:35:46;;;;;;;67.00;5.55;;;;;;;;;;5030701;28;20491;-39
2023/04/18 11:38:14;;;;;;;67.63;5.20;;;;;;;;;;5033361;28;20099;-39
2023/04/18 11:40:48;;;;;;;30.05;2.72;;;;;;;;;;5034382;28;20025;-40
2023/04/18 11:43:20;;;;;;;17.67;2.05;;;;;;;;;;5034217;28;20041;-39
2023/04/18 11:45:57;;;;;;;20.92;1.90;;;;;;;;;;5034355;28;20188;-39
2023/04/18 11:48:24;;;;;;;36.67;3.78;;;;;;;;;;5033931;28;20038;-39
2023/04/18 11:50:51;;;;;;;24.52;2.80;;;;;;;;;;5034098;28;20492;-39
2023/04/18 11:53:37;;;;;;;19.00;1.90;;;;;;;;;;5033996;28;20083;-39
2023/04/18 11:56:05;;;;;;;52.05;3.85;;;;;;;;;;5034055;28;20522;-38
2023/04/18 11:58:33;;;;;;;48.65;4.50;;;;;;;;;;5033917;28;20499;-38
2023/04/18 12:01:00;;;;;;;44.72;3.88;;;;;;;;;;5033957;28;20479;-39
2023/04/18 12:03:28;;;;;;;44.53;4.40;;;;;;;;;;5033994;28;20057;-39
2023/04/18 12:06:02;;;;;;;47.55;5.05;;;;;;;;;;5033824;28;20044;-39
2023/04/18 12:08:31;;;;;;;45.20;4.28;;;;;;;;;;5033605;28;20041;-39
2023/04/18 12:10:58;;;;;;;41.45;4.75;;;;;;;;;;5033702;28;20037;-38
2023/04/18 12:13:26;;;;;;;35.90;3.97;;;;;;;;;;5033729;28;20515;-38
2023/04/18 12:15:53;;;;;;;31.88;3.42;;;;;;;;;;5033635;28;20021;-38
2023/04/18 12:18:20;;;;;;;33.72;3.45;;;;;;;;;;5033539;28;20104;-39
2023/04/18 12:20:53;;;;;;;29.65;3.42;;;;;;;;;;5033534;28;20034;-39
2023/04/18 12:23:29;;;;;;;25.50;3.17;;;;;;;;;;5033570;28;20435;-39
2023/04/18 12:26:06;;;;;;;23.92;2.50;;;;;;;;;;5033451;28;20018;-39
2023/04/18 12:28:33;;;;;;;23.17;2.88;;;;;;;;;;5033328;28;20029;-38
2023/04/18 12:31:01;;;;;;;21.70;3.03;;;;;;;;;;5033281;28;20103;-39
2023/04/18 12:33:28;;;;;;;30.63;3.05;;;;;;;;;;5033280;28;20018;-39
2023/04/18 12:35:55;;;;;;;25.85;3.22;;;;;;;;;;5033289;28;20049;-38
2023/04/18 12:38:22;;;;;;;22.77;3.40;;;;;;;;;;5033052;28;20048;-38
2023/04/18 12:40:50;;;;;;;19.23;3.15;;;;;;;;;;5033301;28;20022;-39
2023/04/18 12:43:17;;;;;;;31.67;2.63;;;;;;;;;;5033191;28;20025;-39
2023/04/18 12:45:45;;;;;;;17.02;2.80;;;;;;;;;;5033185;28;20025;-38
2023/04/18 12:48:12;;;;;;;15.73;2.50;;;;;;;;;;5032419;28;20109;-38
2023/04/18 12:50:39;;;;;;;21.88;2.47;;;;;;;;;;5032942;28;20060;-39
2023/04/18 12:53:06;;;;;;;22.20;3.05;;;;;;;;;;5032965;28;20031;-38
2023/04/18 12:55:33;;;;;;;22.77;2.58;;;;;;;;;;5033145;28;20033;-39
2023/04/18 12:58:00;;;;;;;17.40;2.72;;;;;;;;;;5032808;28;20034;-39
2023/04/18 13:00:28;;;;;;;19.85;3.20;;;;;;;;;;5032797;28;20476;-39
2023/04/18 13:02:55;;;;;;;18.73;2.78;;;;;;;;;;5032766;28;20048;-39
2023/04/18 13:05:23;;;;;;;17.70;2.30;;;;;;;;;;5032705;28;20038;-38
2023/04/18 13:07:51;;;;;;;19.02;2.58;;;;;;;;;;5032579;28;20033;-39
2023/04/18 13:10:19;;;;;;;19.15;2.38;;;;;;;;;;5032545;28;20809;-38
2023/04/18 13:12:46;;;;;;;19.58;2.45;;;;;;;;;;5032536;28;20025;-39
2023/04/18 13:15:14;;;;;;;21.70;2.17;;;;;;;;;;5026855;28;20476;-39
2023/04/18 13:17:41;;;;;;;22.35;2.63;;;;;;;;;;5032408;28;20030;-41
2023/04/18 13:20:09;;;;;;;16.27;2.60;;;;;;;;;;5032505;28;20028;-40
2023/04/18 13:22:36;;;;;;;16.45;2.30;;;;;;;;;;5031607;28;20056;-40
2023/04/18 13:25:04;;;;;;;17.33;1.88;;;;;;;;;;5032113;28;20036;-39
2023/04/18 13:27:31;;;;;;;18.30;2.70;;;;;;;;;;5032027;28;20175;-40
2023/04/18 13:29:58;;;;;;;15.93;2.25;;;;;;;;;;5031960;28;20040;-39
2023/04/18 13:32:25;;;;;;;17.65;2.15;;;;;;;;;;5032209;28;20029;-40
2023/04/18 13:34:54;;;;;;;16.98;2.00;;;;;;;;;;5031806;28;20033;-39
2023/04/18 13:37:22;;;;;;;23.27;2.22;;;;;;;;;;5031900;28;20030;-39
2023/04/18 13:39:49;;;;;;;20.98;2.30;;;;;;;;;;5031881;28;20052;-38
2023/04/18 13:42:17;;;;;;;16.40;2.30;;;;;;;;;;5031776;28;20168;-39
2023/04/18 13:44:44;;;;;;;12.32;1.90;;;;;;;;;;5031688;28;20503;-39
2023/04/18 13:47:11;;;;;;;18.95;2.30;;;;;;;;;;5031614;28;20383;-38
2023/04/18 13:49:39;;;;;;;14.27;1.77;;;;;;;;;;5031455;28;20083;-39
2023/04/18 13:52:06;;;;;;;21.92;2.65;;;;;;;;;;5031588;28;20476;-38
2023/04/18 13:54:33;;;;;;;26.65;3.22;;;;;;;;;;5031488;28;20029;-40
2023/04/18 13:57:02;;;;;;;16.42;2.28;;;;;;;;;;5031422;28;20063;-39
2023/04/18 13:59:30;;;;;;;20.67;2.80;;;;;;;;;;5030188;28;20041;-42
2023/04/18 14:01:58;;;;;;;22.95;2.60;;;;;;;;;;5030800;28;20492;-39
2023/04/18 14:04:25;;;;;;;15.40;2.10;;;;;;;;;;5031385;28;20030;-40
2023/04/18 14:06:52;;;;;;;19.58;2.42;;;;;;;;;;5031427;28;20022;-39
2023/04/18 14:09:19;;;;;;;16.50;2.00;;;;;;;;;;5030478;28;20480;-39
2023/04/18 14:11:46;;;;;;;13.27;2.15;;;;;;;;;;5031106;28;20029;-40
2023/04/18 14:14:13;;;;;;;14.15;2.30;;;;;;;;;;5031392;28;20432;-39
2023/04/18 14:16:41;;;;;;;21.20;2.05;;;;;;;;;;5031101;28;20042;-40
2023/04/18 14:19:08;;;;;;;22.65;2.45;;;;;;;;;;5031303;28;20021;-39
2023/04/18 14:21:35;;;;;;;23.92;2.40;;;;;;;;;;5018030;28;20029;-42
2023/04/18 14:24:02;;;;;;;19.08;2.03;;;;;;;;;;5031251;28;20053;-40
2023/04/18 14:26:29;;;;;;;18.67;2.33;;;;;;;;;;5022234;28;20434;-40
2023/04/18 14:28:56;;;;;;;16.90;2.63;;;;;;;;;;5031257;28;20033;-40
2023/04/18 14:31:23;;;;;;;21.70;2.72;;;;;;;;;;5021937;28;20022;-40
2023/04/18 14:33:51;;;;;;;26.60;2.67;;;;;;;;;;5029233;28;20030;-40
2023/04/18 14:36:18;;;;;;;22.05;2.38;;;;;;;;;;5031039;28;20042;-40
2023/04/18 14:38:49;;;;;;;13.75;2.20;;;;;;;;;;5017494;28;20057;-41
2023/04/18 14:41:16;;;;;;;21.65;2.90;;;;;;;;;;5018485;28;20109;-39
2023/04/18 14:43:43;;;;;;;24.38;3.08;;;;;;;;;;5030346;28;20029;-39
2023/04/18 14:46:15;;;;;;;22.13;2.45;;;;;;;;;;5031417;28;20384;-39
2023/04/18 14:48:42;;;;;;;15.90;2.35;;;;;;;;;;5030698;28;20155;-39
2023/04/18 14:51:09;;;;;;;28.02;2.70;;;;;;;;;;5020195;28;20036;-39